Time;durP1;ratioP1;P1;durP2;ratioP2;P2;SDS_P1;SDS_P2;PMS_P1;PMS_P2;Temp;Humidity;BMP_temperature;BMP_pressure;BME280_temperature;BME280_humidity;BME280_pressure;Samples;Min_cycle;Max_cycle;Signal;HPM_P1;HPM_P2
2023/08/24 00:00:51;;;;;;;2.97;1.80;;;;;;;;;;5133997;27;20062;-60
2023/08/24 00:03:17;;;;;;;3.17;2.15;;;;;;;;;;5115124;27;20051;-59
2023/08/24 00:05:46;;;;;;;3.17;2.15;;;;;;;;;;5113244;28;20055;-60
2023/08/24 00:08:13;;;;;;;9.65;2.20;;;;;;;;;;5112775;27;20385;-60
2023/08/24 00:10:39;;;;;;;2.63;1.70;;;;;;;;;;5113131;28;20472;-59
2023/08/24 00:13:09;;;;;;;2.75;2.05;;;;;;;;;;5115331;27;20044;-60
2023/08/24 00:15:36;;;;;;;2.38;1.70;;;;;;;;;;5112882;28;20074;-60
2023/08/24 00:18:03;;;;;;;1.95;1.60;;;;;;;;;;5112315;28;20051;-59
2023/08/24 00:20:29;;;;;;;3.35;1.88;;;;;;;;;;5113327;28;20055;-59
2023/08/24 00:22:58;;;;;;;2.90;2.17;;;;;;;;;;5112641;28;20070;-60
2023/08/24 00:25:25;;;;;;;3.13;1.70;;;;;;;;;;5113198;28;20065;-59
2023/08/24 00:27:53;;;;;;;3.00;2.25;;;;;;;;;;5113307;28;20058;-59
2023/08/24 00:30:21;;;;;;;3.25;2.00;;;;;;;;;;5112791;28;20047;-60
2023/08/24 00:32:48;;;;;;;3.53;2.27;;;;;;;;;;5112993;28;20488;-59
2023/08/24 00:35:15;;;;;;;3.08;1.90;;;;;;;;;;5112538;28;20047;-59
2023/08/24 00:37:42;;;;;;;4.38;2.10;;;;;;;;;;5111908;28;20051;-59
2023/08/24 00:40:11;;;;;;;3.25;2.40;;;;;;;;;;5112348;28;20408;-59
2023/08/24 00:42:38;;;;;;;2.87;1.90;;;;;;;;;;5112795;28;20043;-60
2023/08/24 00:45:05;;;;;;;2.25;1.92;;;;;;;;;;5112751;28;20058;-59
2023/08/24 00:47:32;;;;;;;4.32;2.17;;;;;;;;;;5108065;28;20052;-60
2023/08/24 00:50:00;;;;;;;2.00;1.73;;;;;;;;;;5100781;28;20503;-60
2023/08/24 00:52:29;;;;;;;3.55;2.00;;;;;;;;;;5116940;28;20048;-59
2023/08/24 00:54:56;;;;;;;;;;;;;;;;;;5117525;28;20054;-59
2023/08/24 00:57:24;;;;;;;3.50;1.98;;;;;;;;;;5117180;27;19935;-59
2023/08/24 00:59:52;;;;;;;3.72;2.00;;;;;;;;;;5117171;28;20515;-59
2023/08/24 01:02:19;;;;;;;4.25;2.60;;;;;;;;;;5116335;28;20063;-59
2023/08/24 01:04:47;;;;;;;4.07;2.25;;;;;;;;;;5117005;28;20063;-60
2023/08/24 01:07:14;;;;;;;1.98;1.48;;;;;;;;;;5115949;28;20062;-59
2023/08/24 01:09:42;;;;;;;3.28;2.10;;;;;;;;;;5116099;28;20052;-59
2023/08/24 01:12:17;;;;;;;3.75;1.83;;;;;;;;;;5116659;28;20408;-59
2023/08/24 01:14:50;;;;;;;2.10;1.70;;;;;;;;;;5117847;27;20048;-59
2023/08/24 01:17:21;;;;;;;2.35;1.60;;;;;;;;;;5116193;28;20058;-59
2023/08/24 01:19:48;;;;;;;2.63;1.90;;;;;;;;;;5116304;28;20055;-59
2023/08/24 01:22:29;;;;;;;3.13;1.92;;;;;;;;;;5116213;28;20457;-59
2023/08/24 01:25:03;;;;;;;2.70;1.45;;;;;;;;;;5116487;28;20396;-59
2023/08/24 01:27:35;;;;;;;3.28;2.00;;;;;;;;;;5130168;27;20480;-59
2023/08/24 01:30:03;;;;;;;3.25;2.03;;;;;;;;;;5116271;28;20047;-59
2023/08/24 01:32:49;;;;;;;3.13;1.92;;;;;;;;;;5115431;27;20055;-59
2023/08/24 01:35:15;;;;;;;3.20;2.00;;;;;;;;;;5116107;28;20048;-59
2023/08/24 01:37:43;;;;;;;5.10;2.40;;;;;;;;;;5116043;28;20058;-59
2023/08/24 01:40:13;;;;;;;2.75;2.00;;;;;;;;;;5116111;28;20056;-59
2023/08/24 01:42:45;;;;;;;2.97;1.90;;;;;;;;;;5114837;27;20059;-59
2023/08/24 01:45:13;;;;;;;3.85;2.10;;;;;;;;;;5116174;28;20056;-59
2023/08/24 01:47:45;;;;;;;2.58;2.05;;;;;;;;;;5115670;28;20366;-59
2023/08/24 01:50:12;;;;;;;2.65;1.88;;;;;;;;;;5115807;28;20052;-59
2023/08/24 01:52:39;;;;;;;3.25;2.25;;;;;;;;;;5115061;28;20070;-59
2023/08/24 01:55:06;;;;;;;4.35;2.20;;;;;;;;;;5115839;28;20361;-59
2023/08/24 01:57:35;;;;;;;2.67;1.55;;;;;;;;;;5122464;27;20389;-59
2023/08/24 02:00:06;;;;;;;3.67;2.25;;;;;;;;;;5114747;28;20064;-59
2023/08/24 02:02:35;;;;;;;3.80;1.88;;;;;;;;;;5114175;28;20062;-59
2023/08/24 02:05:02;;;;;;;2.72;1.73;;;;;;;;;;5115541;28;20054;-59
2023/08/24 02:07:29;;;;;;;2.75;2.25;;;;;;;;;;5115159;28;20070;-59
2023/08/24 02:09:56;;;;;;;4.53;1.92;;;;;;;;;;5114488;28;20410;-59
2023/08/24 02:12:23;;;;;;;3.13;1.92;;;;;;;;;;5115138;27;20055;-59
2023/08/24 02:14:50;;;;;;;2.78;1.92;;;;;;;;;;5115287;27;20048;-59
2023/08/24 02:17:18;;;;;;;2.95;2.15;;;;;;;;;;5115713;28;20404;-59
2023/08/24 02:19:45;;;;;;;4.65;1.90;;;;;;;;;;5114655;28;20404;-59
2023/08/24 02:22:11;;;;;;;2.88;1.95;;;;;;;;;;5114875;28;20074;-59
2023/08/24 02:24:39;;;;;;;2.85;2.45;;;;;;;;;;5114965;28;20054;-60
2023/08/24 02:27:06;;;;;;;2.88;2.28;;;;;;;;;;5115006;28;20059;-59
2023/08/24 02:29:32;;;;;;;3.13;2.13;;;;;;;;;;5114179;28;20067;-59
2023/08/24 02:31:59;;;;;;;5.35;2.70;;;;;;;;;;5114544;28;20480;-59
2023/08/24 02:34:27;;;;;;;4.55;2.45;;;;;;;;;;5115053;28;20055;-59
2023/08/24 02:36:54;;;;;;;3.88;2.35;;;;;;;;;;5114449;28;20523;-59
2023/08/24 02:39:21;;;;;;;3.03;1.95;;;;;;;;;;5113862;28;20052;-59
2023/08/24 02:41:48;;;;;;;3.38;1.95;;;;;;;;;;5114353;28;20051;-59
2023/08/24 02:44:14;;;;;;;2.72;2.08;;;;;;;;;;5114306;27;20044;-59
2023/08/24 02:46:45;;;;;;;2.05;1.70;;;;;;;;;;5114584;28;20075;-59
2023/08/24 02:49:12;;;;;;;2.50;1.70;;;;;;;;;;5113646;28;20059;-60
2023/08/24 02:51:50;;;;;;;3.25;1.95;;;;;;;;;;5114217;28;20074;-59
2023/08/24 02:54:17;;;;;;;2.83;2.37;;;;;;;;;;5114404;28;20047;-60
2023/08/24 02:56:44;;;;;;;4.72;2.38;;;;;;;;;;5114510;28;20469;-59
2023/08/24 02:59:11;;;;;;;3.42;2.08;;;;;;;;;;5114054;27;20051;-59
2023/08/24 03:01:38;;;;;;;3.78;1.95;;;;;;;;;;5113769;28;20055;-59
2023/08/24 03:04:05;;;;;;;2.70;2.10;;;;;;;;;;5114028;28;20058;-59
2023/08/24 03:06:32;;;;;;;3.10;2.13;;;;;;;;;;5114935;28;20051;-59
2023/08/24 03:09:00;;;;;;;2.97;1.90;;;;;;;;;;5113892;27;20055;-59
2023/08/24 03:11:30;;;;;;;2.63;2.03;;;;;;;;;;5114553;28;20137;-59
2023/08/24 03:13:57;;;;;;;3.38;1.88;;;;;;;;;;5114930;27;20400;-59
2023/08/24 03:16:24;;;;;;;2.40;1.92;;;;;;;;;;5114024;27;20062;-59
2023/08/24 03:18:51;;;;;;;3.00;2.10;;;;;;;;;;5113940;28;20408;-59
2023/08/24 03:21:20;;;;;;;3.58;2.00;;;;;;;;;;5113659;28;20051;-59
2023/08/24 03:23:46;;;;;;;2.67;1.85;;;;;;;;;;5113890;28;20392;-59
2023/08/24 03:26:16;;;;;;;2.75;1.83;;;;;;;;;;5114389;28;20484;-59
2023/08/24 03:28:43;;;;;;;2.53;1.98;;;;;;;;;;5113435;27;20043;-59
2023/08/24 03:31:10;;;;;;;3.30;1.83;;;;;;;;;;5113687;28;20062;-59
2023/08/24 03:33:37;;;;;;;3.55;2.33;;;;;;;;;;5113936;28;20054;-59
2023/08/24 03:36:04;;;;;;;3.25;1.92;;;;;;;;;;5113237;28;20393;-59
2023/08/24 03:38:31;;;;;;;3.13;1.98;;;;;;;;;;5112617;28;20066;-59
2023/08/24 03:41:01;;;;;;;2.90;1.90;;;;;;;;;;5113385;28;20058;-60
2023/08/24 03:43:29;;;;;;;2.75;1.90;;;;;;;;;;5112753;27;20063;-60
2023/08/24 03:45:56;;;;;;;4.82;2.05;;;;;;;;;;5114039;28;20507;-60
2023/08/24 03:48:23;;;;;;;5.07;2.45;;;;;;;;;;5112667;28;20398;-60
2023/08/24 03:50:50;;;;;;;2.28;1.63;;;;;;;;;;5113313;28;20051;-60
2023/08/24 03:53:17;;;;;;;3.85;2.20;;;;;;;;;;5113470;28;20051;-60
2023/08/24 03:55:48;;;;;;;4.10;2.20;;;;;;;;;;5122647;27;20047;-60
2023/08/24 03:58:17;;;;;;;2.90;2.08;;;;;;;;;;5115959;27;20511;-60
2023/08/24 04:00:45;;;;;;;3.92;2.53;;;;;;;;;;5112173;28;20385;-61
2023/08/24 04:03:12;;;;;;;3.95;2.50;;;;;;;;;;5113527;28;20400;-60
2023/08/24 04:05:39;;;;;;;4.93;2.08;;;;;;;;;;5113116;28;20048;-60
2023/08/24 04:08:07;;;;;;;3.42;2.00;;;;;;;;;;5113832;28;20056;-59
2023/08/24 04:10:33;;;;;;;4.13;2.08;;;;;;;;;;5113134;28;20062;-60
2023/08/24 04:13:05;;;;;;;2.70;1.85;;;;;;;;;;5112555;28;20395;-60
2023/08/24 04:15:32;;;;;;;3.33;2.53;;;;;;;;;;5111802;27;20492;-60
2023/08/24 04:18:00;;;;;;;3.15;1.88;;;;;;;;;;5113196;28;20047;-60
2023/08/24 04:20:27;;;;;;;2.47;2.10;;;;;;;;;;5113595;28;20052;-60
2023/08/24 04:22:55;;;;;;;3.40;1.92;;;;;;;;;;5112693;28;20048;-60
2023/08/24 04:25:22;;;;;;;3.22;2.10;;;;;;;;;;5110908;28;20040;-59
2023/08/24 04:27:49;;;;;;;3.88;2.22;;;;;;;;;;5112757;27;20055;-59
2023/08/24 04:30:16;;;;;;;4.03;2.05;;;;;;;;;;5110670;28;20416;-59
2023/08/24 04:32:43;;;;;;;2.80;1.98;;;;;;;;;;5102532;28;20052;-60
2023/08/24 04:35:11;;;;;;;3.67;2.20;;;;;;;;;;5092518;28;20144;-60
2023/08/24 04:37:38;;;;;;;3.88;2.25;;;;;;;;;;5106514;27;20062;-60
2023/08/24 04:40:07;;;;;;;3.50;2.20;;;;;;;;;;5110712;28;20485;-60
2023/08/24 04:42:34;;;;;;;3.35;1.92;;;;;;;;;;5112047;28;20047;-60
2023/08/24 04:45:03;;;;;;;2.95;1.85;;;;;;;;;;5112572;28;20051;-60
2023/08/24 04:47:32;;;;;;;3.60;1.98;;;;;;;;;;5112540;28;20054;-60
2023/08/24 04:49:59;;;;;;;;;;;;;;;;;;5113238;28;20051;-60
2023/08/24 04:52:28;;;;;;;4.10;2.88;;;;;;;;;;5112264;28;19923;-60
2023/08/24 04:54:57;;;;;;;4.32;2.55;;;;;;;;;;5111199;28;20430;-59
2023/08/24 04:57:24;;;;;;;3.78;2.60;;;;;;;;;;5113182;28;20074;-60
2023/08/24 04:59:51;;;;;;;5.05;2.38;;;;;;;;;;5112518;28;20062;-60
2023/08/24 05:02:17;;;;;;;5.45;2.50;;;;;;;;;;5112494;28;20492;-59
2023/08/24 05:04:44;;;;;;;2.70;1.75;;;;;;;;;;5111604;28;20058;-60
2023/08/24 05:07:12;;;;;;;2.50;1.83;;;;;;;;;;5112062;28;20059;-60
2023/08/24 05:09:40;;;;;;;4.10;2.40;;;;;;;;;;5112403;28;20400;-59
2023/08/24 05:12:08;;;;;;;4.13;2.33;;;;;;;;;;5112445;28;20165;-58
2023/08/24 05:14:35;;;;;;;4.70;2.08;;;;;;;;;;5111365;28;20044;-59
2023/08/24 05:17:02;;;;;;;4.35;2.78;;;;;;;;;;5112695;28;20058;-60
2023/08/24 05:19:29;;;;;;;4.28;2.42;;;;;;;;;;5112292;28;20052;-59
2023/08/24 05:21:55;;;;;;;3.08;2.25;;;;;;;;;;5112683;28;20051;-60
2023/08/24 05:24:22;;;;;;;5.18;2.53;;;;;;;;;;5111642;28;20047;-60
2023/08/24 05:26:50;;;;;;;2.85;2.15;;;;;;;;;;5109423;28;20054;-60
2023/08/24 05:29:17;;;;;;;3.88;2.38;;;;;;;;;;5111795;28;20063;-60
2023/08/24 05:31:44;;;;;;;4.00;2.20;;;;;;;;;;5111567;28;20382;-60
2023/08/24 05:34:11;;;;;;;4.30;2.60;;;;;;;;;;5112239;28;20060;-61
2023/08/24 05:36:38;;;;;;;4.70;2.40;;;;;;;;;;5107950;27;20126;-60
2023/08/24 05:39:04;;;;;;;3.83;2.58;;;;;;;;;;5111040;27;20063;-60
2023/08/24 05:41:31;;;;;;;3.83;2.38;;;;;;;;;;5111494;28;20047;-60
2023/08/24 05:43:59;;;;;;;3.67;2.22;;;;;;;;;;5107074;27;20406;-60
2023/08/24 05:46:26;;;;;;;3.03;2.40;;;;;;;;;;5112671;27;20464;-60
2023/08/24 05:48:53;;;;;;;5.05;2.95;;;;;;;;;;5113604;27;20066;-59
2023/08/24 05:51:20;;;;;;;5.55;2.97;;;;;;;;;;5111555;27;20066;-60
2023/08/24 05:53:47;;;;;;;4.45;2.72;;;;;;;;;;5107433;27;20059;-60
2023/08/24 05:56:13;;;;;;;5.63;3.38;;;;;;;;;;5098931;28;20052;-60
2023/08/24 05:58:40;;;;;;;4.00;2.42;;;;;;;;;;5115736;27;20496;-60
2023/08/24 06:01:08;;;;;;;3.78;2.85;;;;;;;;;;5113824;28;20052;-60
2023/08/24 06:03:35;;;;;;;3.70;2.80;;;;;;;;;;5115421;28;20408;-60
2023/08/24 06:06:03;;;;;;;3.10;2.03;;;;;;;;;;5115128;28;20047;-60
2023/08/24 06:08:30;;;;;;;3.65;2.45;;;;;;;;;;5114997;28;20047;-60
2023/08/24 06:10:57;;;;;;;3.17;2.42;;;;;;;;;;5116261;27;20412;-60
2023/08/24 06:13:24;;;;;;;3.88;2.70;;;;;;;;;;5117967;27;20047;-60
2023/08/24 06:15:51;;;;;;;4.22;2.20;;;;;;;;;;5108321;28;20051;-60
2023/08/24 06:18:19;;;;;;;5.07;2.15;;;;;;;;;;5112152;28;20051;-60
2023/08/24 06:20:48;;;;;;;5.30;3.72;;;;;;;;;;5112617;28;20052;-60
2023/08/24 06:23:15;;;;;;;4.63;3.03;;;;;;;;;;5111476;28;20389;-60
2023/08/24 06:25:42;;;;;;;4.25;2.70;;;;;;;;;;5111252;28;20074;-60
2023/08/24 06:28:09;;;;;;;3.75;2.60;;;;;;;;;;5103684;27;20056;-62
2023/08/24 06:30:38;;;;;;;7.57;3.20;;;;;;;;;;5099029;28;20048;-62
2023/08/24 06:33:05;;;;;;;;;;;;;;;;;;5106178;28;20070;-62
2023/08/24 06:35:33;;;;;;;3.78;2.42;;;;;;;;;;5097420;27;19923;-61
2023/08/24 06:38:00;;;;;;;2.75;2.08;;;;;;;;;;5105685;28;20063;-62
2023/08/24 06:40:27;;;;;;;4.30;2.65;;;;;;;;;;5106634;27;20056;-61
2023/08/24 06:42:54;;;;;;;4.03;2.72;;;;;;;;;;5097788;27;20055;-62
2023/08/24 06:45:21;;;;;;;5.85;3.28;;;;;;;;;;5102723;27;20067;-62
2023/08/24 06:47:48;;;;;;;3.78;2.63;;;;;;;;;;5106024;27;20063;-62
2023/08/24 06:50:14;;;;;;;2.83;2.20;;;;;;;;;;5096385;28;20052;-61
2023/08/24 06:52:43;;;;;;;5.35;2.88;;;;;;;;;;5103115;27;20052;-59
2023/08/24 06:55:10;;;;;;;4.15;2.47;;;;;;;;;;5099908;27;20117;-61
2023/08/24 06:57:37;;;;;;;4.68;2.33;;;;;;;;;;5106296;27;20483;-62
2023/08/24 07:00:07;;;;;;;4.65;1.90;;;;;;;;;;5102658;28;20063;-61
2023/08/24 07:02:34;;;;;;;3.83;2.22;;;;;;;;;;5106090;28;20052;-61
2023/08/24 07:05:01;;;;;;;4.15;2.03;;;;;;;;;;5103137;28;20066;-62
2023/08/24 07:07:27;;;;;;;3.25;2.05;;;;;;;;;;5104324;27;20059;-62
2023/08/24 07:09:55;;;;;;;2.97;1.80;;;;;;;;;;5104673;28;20048;-61
2023/08/24 07:12:22;;;;;;;3.75;2.55;;;;;;;;;;5099908;27;20052;-61
2023/08/24 07:14:49;;;;;;;2.63;1.90;;;;;;;;;;5097702;28;20101;-62
2023/08/24 07:17:16;;;;;;;3.15;1.90;;;;;;;;;;5103563;28;20052;-62
2023/08/24 07:19:43;;;;;;;2.53;1.90;;;;;;;;;;5103132;28;21424;-62
2023/08/24 07:22:11;;;;;;;3.75;2.40;;;;;;;;;;5095490;27;20052;-61
2023/08/24 07:24:37;;;;;;;4.80;2.70;;;;;;;;;;5099195;28;20063;-62
2023/08/24 07:27:06;;;;;;;4.55;2.30;;;;;;;;;;5096290;27;20051;-61
2023/08/24 07:29:32;;;;;;;3.25;2.00;;;;;;;;;;5103190;28;20056;-62
2023/08/24 07:31:59;;;;;;;2.60;1.60;;;;;;;;;;5096062;27;20047;-60
2023/08/24 07:34:26;;;;;;;2.95;1.88;;;;;;;;;;5104173;28;20047;-62
2023/08/24 07:36:55;;;;;;;3.05;1.92;;;;;;;;;;5103382;28;20056;-62
2023/08/24 07:39:22;;;;;;;3.72;1.88;;;;;;;;;;5101882;28;20528;-61
2023/08/24 07:41:48;;;;;;;3.45;2.05;;;;;;;;;;5104892;28;20571;-62
2023/08/24 07:44:16;;;;;;;2.42;1.67;;;;;;;;;;5104506;27;20043;-62
2023/08/24 07:46:44;;;;;;;2.47;1.65;;;;;;;;;;5101903;28;20043;-62
2023/08/24 07:49:10;;;;;;;4.15;1.40;;;;;;;;;;5102085;28;20055;-62
2023/08/24 07:51:37;;;;;;;2.78;1.85;;;;;;;;;;5096794;28;20059;-62
2023/08/24 07:54:06;;;;;;;2.50;1.67;;;;;;;;;;5097151;28;20054;-63
2023/08/24 07:56:33;;;;;;;1.85;1.40;;;;;;;;;;5100279;28;20052;-62
2023/08/24 07:59:00;;;;;;;1.98;1.00;;;;;;;;;;5104665;28;20393;-62
2023/08/24 08:01:28;;;;;;;1.80;1.00;;;;;;;;;;5102415;28;20055;-63
2023/08/24 08:03:55;;;;;;;2.03;1.08;;;;;;;;;;5096160;28;20052;-63
2023/08/24 08:06:24;;;;;;;3.05;1.48;;;;;;;;;;5102580;27;21376;-63
2023/08/24 08:08:51;;;;;;;3.15;1.52;;;;;;;;;;5103570;28;20067;-63
2023/08/24 08:11:18;;;;;;;2.80;1.63;;;;;;;;;;5100304;28;20051;-63
2023/08/24 08:13:45;;;;;;;1.90;1.00;;;;;;;;;;5100335;27;20492;-63
2023/08/24 08:16:12;;;;;;;2.13;1.20;;;;;;;;;;5099813;28;20044;-63
2023/08/24 08:18:40;;;;;;;1.67;1.00;;;;;;;;;;5086942;28;20056;-63
2023/08/24 08:21:10;;;;;;;1.83;1.15;;;;;;;;;;5099544;28;20409;-63
2023/08/24 08:23:37;;;;;;;1.60;0.93;;;;;;;;;;5100614;28;20059;-64
2023/08/24 08:26:04;;;;;;;2.35;1.10;;;;;;;;;;5101462;27;20052;-63
2023/08/24 08:28:33;;;;;;;4.63;1.35;;;;;;;;;;5100411;27;20070;-64
2023/08/24 08:31:00;;;;;;;1.98;0.93;;;;;;;;;;5103929;27;20055;-63
2023/08/24 08:33:27;;;;;;;2.58;1.17;;;;;;;;;;5110420;28;22058;-63
2023/08/24 08:35:55;;;;;;;6.78;1.10;;;;;;;;;;5109666;28;20059;-63
2023/08/24 08:38:25;;;;;;;2.22;1.10;;;;;;;;;;5109963;28;20498;-63
2023/08/24 08:40:54;;;;;;;2.55;1.10;;;;;;;;;;5111659;27;20070;-63
2023/08/24 08:43:22;;;;;;;2.15;1.10;;;;;;;;;;5109211;28;20345;-63
2023/08/24 08:45:50;;;;;;;1.75;1.00;;;;;;;;;;5107705;28;20404;-64
2023/08/24 08:48:17;;;;;;;1.70;1.05;;;;;;;;;;5109656;28;20483;-63
2023/08/24 08:50:43;;;;;;;1.63;0.70;;;;;;;;;;5103907;28;20055;-63
2023/08/24 08:53:11;;;;;;;2.40;1.33;;;;;;;;;;5108738;28;20054;-63
2023/08/24 08:55:39;;;;;;;3.67;1.02;;;;;;;;;;5107736;28;20050;-63
2023/08/24 08:58:05;;;;;;;1.80;0.98;;;;;;;;;;5107998;28;20054;-63
2023/08/24 09:00:33;;;;;;;1.20;0.90;;;;;;;;;;5108597;28;20074;-61
2023/08/24 09:02:59;;;;;;;3.05;1.08;;;;;;;;;;5108985;28;20489;-61
2023/08/24 09:05:26;;;;;;;1.83;1.08;;;;;;;;;;5104409;28;20058;-63
2023/08/24 09:07:54;;;;;;;2.13;1.25;;;;;;;;;;5108059;28;20484;-63
2023/08/24 09:10:22;;;;;;;1.63;1.00;;;;;;;;;;5117118;28;20066;-63
2023/08/24 09:12:49;;;;;;;1.52;0.95;;;;;;;;;;5112678;28;20047;-63
2023/08/24 09:15:24;;;;;;;2.38;1.17;;;;;;;;;;5114148;28;20056;-63
2023/08/24 09:17:51;;;;;;;1.33;0.90;;;;;;;;;;5114846;28;20408;-61
2023/08/24 09:20:18;;;;;;;1.38;1.00;;;;;;;;;;5112043;28;20050;-63
2023/08/24 09:22:45;;;;;;;2.05;1.45;;;;;;;;;;5112565;28;20408;-63
2023/08/24 09:25:12;;;;;;;1.45;0.90;;;;;;;;;;5114038;27;20070;-63
2023/08/24 09:27:41;;;;;;;3.50;1.00;;;;;;;;;;5110633;27;20052;-63
2023/08/24 09:30:08;;;;;;;2.20;1.33;;;;;;;;;;5111647;28;20044;-61
2023/08/24 09:32:35;;;;;;;;;;;;;;;;;;5113379;28;20058;-62
2023/08/24 09:35:08;;;;;;;1.55;1.00;;;;;;;;;;5112098;28;19927;-65
2023/08/24 09:37:35;;;;;;;2.42;1.40;;;;;;;;;;5109946;27;20048;-64
2023/08/24 09:40:04;;;;;;;1.70;1.15;;;;;;;;;;5113864;27;20062;-63
2023/08/24 09:42:30;;;;;;;2.25;1.23;;;;;;;;;;5113217;28;20048;-63
2023/08/24 09:45:05;;;;;;;1.50;0.90;;;;;;;;;;5109669;28;20468;-61
2023/08/24 09:47:32;;;;;;;3.38;1.25;;;;;;;;;;5113313;27;20512;-62
2023/08/24 09:50:00;;;;;;;1.75;1.20;;;;;;;;;;5111001;27;20051;-63
2023/08/24 09:52:30;;;;;;;1.35;0.77;;;;;;;;;;5111158;28;20043;-63
2023/08/24 09:54:58;;;;;;;2.75;1.13;;;;;;;;;;5114793;27;20048;-63
2023/08/24 09:57:25;;;;;;;5.20;1.23;;;;;;;;;;5112242;27;20420;-63
2023/08/24 09:59:52;;;;;;;2.80;1.02;;;;;;;;;;5111404;28;20061;-63
2023/08/24 10:02:22;;;;;;;2.33;1.40;;;;;;;;;;5111755;28;20420;-63
2023/08/24 10:04:51;;;;;;;2.05;1.10;;;;;;;;;;5110096;28;20054;-63
2023/08/24 10:07:20;;;;;;;1.83;1.10;;;;;;;;;;5113350;28;20047;-63
2023/08/24 10:09:53;;;;;;;1.75;1.00;;;;;;;;;;5108708;27;20048;-63
2023/08/24 10:12:21;;;;;;;1.65;1.10;;;;;;;;;;5108166;28;20052;-62
2023/08/24 10:14:51;;;;;;;1.60;1.00;;;;;;;;;;5112625;28;20063;-61
2023/08/24 10:17:18;;;;;;;2.33;1.10;;;;;;;;;;5112482;27;20044;-62
2023/08/24 10:19:47;;;;;;;1.67;1.05;;;;;;;;;;5111784;28;20052;-62
2023/08/24 10:22:14;;;;;;;3.85;1.00;;;;;;;;;;5104756;28;20048;-61
2023/08/24 10:24:43;;;;;;;2.65;0.93;;;;;;;;;;5110364;28;20051;-61
2023/08/24 10:27:10;;;;;;;1.88;1.02;;;;;;;;;;5113325;28;20047;-63
2023/08/24 10:29:36;;;;;;;1.20;0.90;;;;;;;;;;5110960;28;20062;-61
2023/08/24 10:32:04;;;;;;;1.42;0.98;;;;;;;;;;5112732;28;20044;-61
2023/08/24 10:34:30;;;;;;;1.52;1.08;;;;;;;;;;5110838;27;20392;-61
2023/08/24 10:37:07;;;;;;;1.63;0.70;;;;;;;;;;5108851;28;20047;-61
2023/08/24 10:39:35;;;;;;;1.57;0.87;;;;;;;;;;5111951;28;20055;-61
2023/08/24 10:42:02;;;;;;;2.15;1.15;;;;;;;;;;5113464;27;20488;-61
2023/08/24 10:44:35;;;;;;;1.52;0.88;;;;;;;;;;5109654;28;20059;-62
2023/08/24 10:47:22;;;;;;;1.83;0.90;;;;;;;;;;5110517;27;20484;-62
2023/08/24 10:49:58;;;;;;;3.75;0.90;;;;;;;;;;5104569;28;20052;-62
2023/08/24 10:52:31;;;;;;;2.08;0.80;;;;;;;;;;5116774;27;20059;-62
2023/08/24 10:54:58;;;;;;;2.15;1.02;;;;;;;;;;5111612;27;20063;-62
2023/08/24 10:57:27;;;;;;;1.33;0.88;;;;;;;;;;5116996;27;20054;-62
2023/08/24 11:00:01;;;;;;;2.13;1.00;;;;;;;;;;5111974;28;20052;-62
2023/08/24 11:02:27;;;;;;;1.95;0.90;;;;;;;;;;5130195;27;20062;-61
2023/08/24 11:05:07;;;;;;;3.10;1.50;;;;;;;;;;5113528;27;20056;-61
2023/08/24 11:07:35;;;;;;;1.67;1.10;;;;;;;;;;5122992;27;20052;-61
2023/08/24 11:10:11;;;;;;;5.15;1.00;;;;;;;;;;5113622;27;20051;-62
2023/08/24 11:13:02;;;;;;;1.30;0.85;;;;;;;;;;5128503;27;20059;-62
2023/08/24 11:15:32;;;;;;;1.30;0.90;;;;;;;;;;5111377;28;20055;-62
2023/08/24 11:18:27;;;;;;;2.10;1.17;;;;;;;;;;5130823;27;20054;-63
2023/08/24 11:20:54;;;;;;;1.60;0.88;;;;;;;;;;5119402;27;20056;-62
2023/08/24 11:23:23;;;;;;;1.60;1.00;;;;;;;;;;5123142;27;20047;-62
2023/08/24 11:25:51;;;;;;;2.38;0.93;;;;;;;;;;5110125;28;20046;-62
2023/08/24 11:28:19;;;;;;;2.00;1.05;;;;;;;;;;5107441;28;20054;-62
2023/08/24 11:30:46;;;;;;;1.60;0.70;;;;;;;;;;5108803;28;20468;-62
2023/08/24 11:33:13;;;;;;;2.05;1.30;;;;;;;;;;5103931;28;20067;-62
2023/08/24 11:35:41;;;;;;;1.75;0.93;;;;;;;;;;5104184;28;20051;-62
2023/08/24 11:38:08;;;;;;;1.48;0.70;;;;;;;;;;5107154;27;20424;-63
2023/08/24 11:40:37;;;;;;;1.15;0.70;;;;;;;;;;5111518;28;20051;-64
2023/08/24 11:43:04;;;;;;;2.17;1.00;;;;;;;;;;5110737;27;20534;-62
2023/08/24 11:45:31;;;;;;;4.40;1.00;;;;;;;;;;5109190;28;20830;-63
2023/08/24 11:47:59;;;;;;;2.85;1.20;;;;;;;;;;5109934;28;20044;-63
2023/08/24 11:50:26;;;;;;;2.28;1.27;;;;;;;;;;5110914;28;20052;-63
2023/08/24 11:52:53;;;;;;;1.65;0.75;;;;;;;;;;5111991;27;20055;-62
2023/08/24 11:55:21;;;;;;;1.65;1.05;;;;;;;;;;5108762;28;20404;-62
2023/08/24 11:57:50;;;;;;;2.22;1.00;;;;;;;;;;5108908;28;20092;-63
2023/08/24 12:00:17;;;;;;;2.42;1.25;;;;;;;;;;5109194;28;20051;-62
2023/08/24 12:02:44;;;;;;;3.85;1.10;;;;;;;;;;5110013;28;20078;-63
2023/08/24 12:05:20;;;;;;;4.40;1.30;;;;;;;;;;5110289;28;20047;-63
2023/08/24 12:07:47;;;;;;;2.30;0.98;;;;;;;;;;5108069;28;20048;-63
2023/08/24 12:10:14;;;;;;;1.75;1.00;;;;;;;;;;5111311;27;20385;-63
2023/08/24 12:12:41;;;;;;;1.52;0.90;;;;;;;;;;5109202;28;20062;-63
2023/08/24 12:15:15;;;;;;;2.80;1.35;;;;;;;;;;5104135;28;20047;-63
2023/08/24 12:17:47;;;;;;;1.50;0.82;;;;;;;;;;5107630;28;20515;-62
2023/08/24 12:20:18;;;;;;;1.40;0.90;;;;;;;;;;5110752;28;20047;-62
2023/08/24 12:22:48;;;;;;;3.47;1.33;;;;;;;;;;5109366;28;20062;-63
2023/08/24 12:25:16;;;;;;;1.30;0.90;;;;;;;;;;5107288;28;20047;-63
2023/08/24 12:27:43;;;;;;;;;;;;;;;;;;5108893;28;20047;-62
2023/08/24 12:30:12;;;;;;;1.65;0.95;;;;;;;;;;5110377;28;19930;-63
2023/08/24 12:32:50;;;;;;;2.45;0.93;;;;;;;;;;5110303;28;20444;-62
2023/08/24 12:35:17;;;;;;;2.87;1.43;;;;;;;;;;5110319;28;20052;-62
2023/08/24 12:37:44;;;;;;;2.10;1.13;;;;;;;;;;5089406;28;20997;-63
2023/08/24 12:40:11;;;;;;;1.65;0.70;;;;;;;;;;5089646;28;20044;-62
2023/08/24 12:42:38;;;;;;;3.13;1.52;;;;;;;;;;5089352;28;20056;-62
2023/08/24 12:45:06;;;;;;;2.85;1.45;;;;;;;;;;5089848;28;20048;-63
2023/08/24 12:47:37;;;;;;;1.92;1.20;;;;;;;;;;5086841;28;20071;-62
2023/08/24 12:50:06;;;;;;;1.73;0.80;;;;;;;;;;5088955;28;20504;-62
2023/08/24 12:52:32;;;;;;;;;;;;;;;;;;5088398;28;20044;-62
2023/08/24 12:55:04;;;;;;;1.70;1.30;;;;;;;;;;5089104;28;19943;-63
2023/08/24 12:57:32;;;;;;;2.55;1.15;;;;;;;;;;5087581;28;20048;-63
2023/08/24 12:59:59;;;;;;;1.80;0.90;;;;;;;;;;5087309;28;20058;-61
2023/08/24 13:02:26;;;;;;;2.25;1.20;;;;;;;;;;5086379;28;20044;-62
2023/08/24 13:04:55;;;;;;;1.73;0.98;;;;;;;;;;5089359;28;20512;-62
2023/08/24 13:07:22;;;;;;;2.00;1.20;;;;;;;;;;5086611;28;20055;-63
2023/08/24 13:09:48;;;;;;;3.15;1.15;;;;;;;;;;5086352;28;20048;-62
2023/08/24 13:12:15;;;;;;;2.35;1.00;;;;;;;;;;5089444;28;20485;-62
2023/08/24 13:14:45;;;;;;;2.33;1.02;;;;;;;;;;5086706;28;20052;-62
2023/08/24 13:17:12;;;;;;;1.55;0.70;;;;;;;;;;5088035;28;20048;-61
2023/08/24 13:19:39;;;;;;;2.60;1.10;;;;;;;;;;5083915;28;20055;-62
2023/08/24 13:22:08;;;;;;;1.50;1.10;;;;;;;;;;5084943;28;20059;-61
2023/08/24 13:24:35;;;;;;;2.15;1.08;;;;;;;;;;5090447;28;20063;-61
2023/08/24 13:27:02;;;;;;;2.00;1.25;;;;;;;;;;5089243;28;20051;-62
2023/08/24 13:29:29;;;;;;;6.55;1.25;;;;;;;;;;5085847;28;20056;-61
2023/08/24 13:31:56;;;;;;;2.60;1.00;;;;;;;;;;5083312;28;20063;-62
2023/08/24 13:34:23;;;;;;;1.90;0.93;;;;;;;;;;5084880;28;20055;-62
2023/08/24 13:36:50;;;;;;;2.88;1.50;;;;;;;;;;5088385;28;20056;-62
2023/08/24 13:39:18;;;;;;;1.42;0.77;;;;;;;;;;5089468;28;20047;-62
2023/08/24 13:41:45;;;;;;;4.60;1.20;;;;;;;;;;5087484;28;20059;-61
2023/08/24 13:44:13;;;;;;;3.40;1.25;;;;;;;;;;5086037;28;20457;-62
2023/08/24 13:46:40;;;;;;;2.38;1.30;;;;;;;;;;5088514;28;20056;-62
2023/08/24 13:49:06;;;;;;;1.60;1.00;;;;;;;;;;5087974;28;20062;-62
2023/08/24 13:51:33;;;;;;;2.10;1.27;;;;;;;;;;5085513;28;20063;-63
2023/08/24 13:54:00;;;;;;;2.60;1.25;;;;;;;;;;5086929;28;20048;-62
2023/08/24 13:56:28;;;;;;;1.40;0.90;;;;;;;;;;5087389;28;20052;-62
2023/08/24 13:58:55;;;;;;;1.40;0.90;;;;;;;;;;5090549;28;20047;-62
2023/08/24 14:01:22;;;;;;;2.40;1.05;;;;;;;;;;5092169;28;20048;-63
2023/08/24 14:03:49;;;;;;;2.17;1.15;;;;;;;;;;5092041;28;20075;-62
2023/08/24 14:06:16;;;;;;;1.83;1.00;;;;;;;;;;5093215;28;20059;-62
2023/08/24 14:08:43;;;;;;;4.13;1.38;;;;;;;;;;5090670;28;20043;-61
2023/08/24 14:11:09;;;;;;;2.45;1.20;;;;;;;;;;5092260;28;20079;-62
2023/08/24 14:13:38;;;;;;;2.05;1.30;;;;;;;;;;5091200;28;20431;-62
2023/08/24 14:16:05;;;;;;;1.58;0.95;;;;;;;;;;5090507;28;20048;-61
2023/08/24 14:18:31;;;;;;;3.22;1.10;;;;;;;;;;5091830;28;20052;-61
2023/08/24 14:20:58;;;;;;;1.90;1.02;;;;;;;;;;5091721;28;20048;-62
2023/08/24 14:23:25;;;;;;;2.08;1.02;;;;;;;;;;5093287;28;20044;-63
2023/08/24 14:25:52;;;;;;;1.30;0.98;;;;;;;;;;5090480;28;20056;-62
2023/08/24 14:28:19;;;;;;;2.05;1.23;;;;;;;;;;5092123;28;20047;-62
2023/08/24 14:30:48;;;;;;;3.80;1.27;;;;;;;;;;5098430;28;20082;-62
2023/08/24 14:33:14;;;;;;;2.88;1.55;;;;;;;;;;5091779;28;20475;-61
2023/08/24 14:35:41;;;;;;;1.92;0.85;;;;;;;;;;5086495;28;20051;-62
2023/08/24 14:38:09;;;;;;;2.10;0.93;;;;;;;;;;5111102;28;20058;-61
2023/08/24 14:40:35;;;;;;;2.05;1.45;;;;;;;;;;5112796;27;20472;-62
2023/08/24 14:43:02;;;;;;;2.03;1.17;;;;;;;;;;5112355;28;20057;-62
2023/08/24 14:45:29;;;;;;;2.42;0.90;;;;;;;;;;5113225;28;20067;-62
2023/08/24 14:47:57;;;;;;;1.98;1.20;;;;;;;;;;5112291;28;20043;-61
2023/08/24 14:50:24;;;;;;;1.95;1.55;;;;;;;;;;5109710;27;20047;-62